createdAt,value
2018-03-03T00:01:28.251Z,99919.54
2018-03-03T00:03:56.571Z,99920.97
2018-03-03T00:06:24.926Z,99916.34
2018-03-03T00:08:53.289Z,99920.06
2018-03-03T00:11:21.631Z,99934.00
2018-03-03T00:13:50.010Z,99941.70
2018-03-03T00:16:18.335Z,99925.94
2018-03-03T00:18:46.676Z,99923.11
2018-03-03T00:21:15.299Z,99940.59
2018-03-03T00:23:44.384Z,99945.95
2018-03-03T00:26:12.755Z,99937.66
2018-03-03T00:28:41.098Z,99932.84
2018-03-03T00:31:09.479Z,99930.98
2018-03-03T00:33:37.815Z,99935.70
2018-03-03T00:36:06.207Z,99938.72
2018-03-03T00:38:35.368Z,99935.51
2018-03-03T00:41:03.705Z,99936.62
2018-03-03T00:43:32.084Z,99943.34
2018-03-03T00:46:00.422Z,99945.42
2018-03-03T00:48:28.787Z,99946.30
2018-03-03T00:50:57.154Z,99948.94
2018-03-03T00:53:25.495Z,99945.47
2018-03-03T00:55:53.865Z,99950.55
2018-03-03T00:58:23.002Z,99953.24
2018-03-03T01:00:51.339Z,99951.08
2018-03-03T01:03:19.683Z,99941.95
2018-03-03T01:05:49.057Z,99942.88
2018-03-03T01:08:18.142Z,99947.81
2018-03-03T01:10:46.470Z,99949.93
2018-03-03T01:13:14.846Z,99951.20
2018-03-03T01:15:43.180Z,99948.09
2018-03-03T01:18:11.536Z,99950.86
2018-03-03T01:20:39.878Z,99953.73
2018-03-03T01:23:08.267Z,99944.87
2018-03-03T01:25:37.362Z,99950.81
2018-03-03T01:28:06.494Z,99956.41
2018-03-03T01:30:34.863Z,99956.23
2018-03-03T01:33:03.234Z,99961.70
2018-03-03T01:35:32.697Z,99961.92
2018-03-03T01:38:01.043Z,99954.91
2018-03-03T01:40:29.397Z,99953.64
2018-03-03T01:42:57.741Z,99955.75
2018-03-03T01:45:26.134Z,99965.48
2018-03-03T01:47:54.503Z,99952.11
2018-03-03T01:50:22.842Z,99957.55
2018-03-03T01:52:51.202Z,99949.39
2018-03-03T01:55:19.564Z,99954.42
2018-03-03T01:57:47.906Z,99954.09
2018-03-03T02:00:17.778Z,99953.94
2018-03-03T02:02:46.166Z,99947.64
2018-03-03T02:05:14.522Z,99951.16
2018-03-03T02:07:42.865Z,99956.80
2018-03-03T02:10:12.022Z,99959.03
2018-03-03T02:12:40.368Z,99965.24
2018-03-03T02:15:08.862Z,99965.71
2018-03-03T02:17:37.198Z,99965.89
2018-03-03T02:20:05.557Z,99963.33
2018-03-03T02:22:33.918Z,99970.12
2018-03-03T02:25:02.248Z,99969.33
2018-03-03T02:27:30.624Z,99975.95
2018-03-03T02:29:58.941Z,99970.37
2018-03-03T02:32:27.273Z,99961.39
2018-03-03T02:34:56.405Z,99952.66
2018-03-03T02:37:24.742Z,99960.14
2018-03-03T02:39:53.117Z,99957.84
2018-03-03T02:42:22.222Z,99962.23
2018-03-03T02:44:51.358Z,99964.98
2018-03-03T02:47:19.778Z,99969.14
2018-03-03T02:49:48.126Z,99963.09
2018-03-03T02:52:16.498Z,99956.08
2018-03-03T02:54:44.842Z,99898.18
2018-03-03T02:57:13.185Z,99946.77
2018-03-03T02:59:41.544Z,99948.48
2018-03-03T03:02:09.910Z,99947.41
2018-03-03T03:04:38.678Z,99946.21
2018-03-03T03:07:07.039Z,99956.56
2018-03-03T03:09:35.417Z,99957.75
2018-03-03T03:12:03.758Z,99952.97
2018-03-03T03:14:32.885Z,99953.73
2018-03-03T03:17:01.258Z,99948.45
2018-03-03T03:19:29.590Z,99953.80
2018-03-03T03:21:57.955Z,99961.72
2018-03-03T03:24:26.322Z,99959.31
2018-03-03T03:26:54.680Z,99960.98
2018-03-03T03:29:23.006Z,99956.87
2018-03-03T03:31:51.364Z,99962.81
2018-03-03T03:34:19.693Z,99954.82
2018-03-03T03:36:48.067Z,99953.14
2018-03-03T03:39:16.437Z,99942.05
2018-03-03T03:41:45.540Z,99947.13
2018-03-03T03:44:13.880Z,99944.36
2018-03-03T03:46:42.251Z,99952.31
2018-03-03T03:49:10.572Z,99954.69
2018-03-03T03:51:39.710Z,99953.12
2018-03-03T03:54:08.047Z,99965.79
2018-03-03T03:56:37.195Z,99965.70
2018-03-03T03:59:05.529Z,99963.73
2018-03-03T04:01:34.641Z,99970.31
2018-03-03T04:04:02.984Z,99972.95
2018-03-03T04:06:31.341Z,99969.43
2018-03-03T04:08:59.661Z,99964.81
2018-03-03T04:11:28.034Z,99966.28
2018-03-03T04:13:57.157Z,99969.86
2018-03-03T04:16:25.527Z,99964.63
2018-03-03T04:18:53.905Z,99965.21
2018-03-03T04:21:22.230Z,99966.68
2018-03-03T04:23:50.635Z,99969.58
2018-03-03T04:26:18.997Z,99968.45
2018-03-03T04:28:47.333Z,99970.07
2018-03-03T04:31:16.857Z,99966.73
2018-03-03T04:33:45.219Z,99973.94
2018-03-03T04:36:13.563Z,99976.59
2018-03-03T04:38:41.940Z,99974.09
2018-03-03T04:41:10.273Z,99979.48
2018-03-03T04:43:38.633Z,99978.94
2018-03-03T04:46:06.991Z,99978.66
2018-03-03T04:48:35.377Z,99987.58
2018-03-03T04:51:03.699Z,99977.36
2018-03-03T04:53:32.079Z,99976.48
2018-03-03T04:56:01.390Z,99973.19
2018-03-03T05:01:57.943Z,99973.16
2018-03-03T05:04:32.421Z,99964.63
2018-03-03T05:07:06.444Z,99959.32
2018-03-03T05:09:36.330Z,99960.70
2018-03-03T05:12:04.701Z,99954.92
2018-03-03T05:14:47.620Z,99947.95
2018-03-03T05:17:31.667Z,99950.41
2018-03-03T05:20:03.389Z,99951.28
2018-03-03T05:22:32.145Z,99954.47
2018-03-03T05:25:06.088Z,99950.61
2018-03-03T05:27:42.140Z,99947.27
2018-03-03T05:30:16.813Z,99943.55
2018-03-03T05:32:50.586Z,99950.86
2018-03-03T05:38:27.057Z,99941.79
2018-03-03T05:40:57.632Z,99943.95
2018-03-03T05:43:31.609Z,99949.86
2018-03-03T05:49:34.100Z,99953.47
2018-03-03T05:52:08.508Z,99953.23
2018-03-03T05:57:47.599Z,99964.70
2018-03-03T06:00:22.152Z,99954.42
2018-03-03T06:02:55.776Z,99960.09
2018-03-03T06:05:24.300Z,99949.23
2018-03-03T06:08:12.239Z,99944.80
2018-03-03T06:10:44.732Z,99948.33
2018-03-03T06:13:13.085Z,99938.64
2018-03-03T06:15:41.857Z,99936.48
2018-03-03T06:18:10.952Z,99941.78
2018-03-03T06:20:40.105Z,99948.69
2018-03-03T06:23:08.468Z,99954.08
2018-03-03T06:25:37.224Z,99948.10
2018-03-03T06:28:05.539Z,99950.21
2018-03-03T06:30:33.976Z,99952.32
2018-03-03T06:33:02.280Z,99955.06
2018-03-03T06:35:31.384Z,99952.80
2018-03-03T06:38:00.132Z,99948.42
2018-03-03T06:40:29.218Z,99949.91
2018-03-03T06:42:58.345Z,99949.43
2018-03-03T06:45:26.672Z,99947.31
2018-03-03T06:47:55.056Z,99949.02
2018-03-03T06:50:23.394Z,99947.22
2018-03-03T06:52:52.883Z,99942.60
2018-03-03T06:55:21.230Z,99945.03
2018-03-03T06:57:50.347Z,99951.67
2018-03-03T07:00:18.782Z,99952.09
2018-03-03T07:02:47.540Z,99948.92
2018-03-03T07:05:15.876Z,99956.78
2018-03-03T07:07:45.054Z,99951.28
2018-03-03T07:10:13.407Z,99956.75
2018-03-03T07:12:41.792Z,99952.45
2018-03-03T07:15:25.904Z,99940.68
2018-03-03T07:17:54.273Z,99937.20
2018-03-03T07:20:22.632Z,99936.11
2018-03-03T07:22:51.788Z,99933.94
2018-03-03T07:25:20.878Z,99931.89
2018-03-03T07:27:49.223Z,99931.58
2018-03-03T07:30:17.961Z,99938.66
2018-03-03T07:32:46.298Z,99935.88
2018-03-03T07:35:14.656Z,99940.09
2018-03-03T07:37:42.996Z,99936.59
2018-03-03T07:40:12.147Z,99937.88
2018-03-03T07:42:40.497Z,99935.41
2018-03-03T07:45:09.626Z,99937.36
2018-03-03T07:47:37.995Z,99935.56
2018-03-03T07:50:06.354Z,99929.40
2018-03-03T07:52:34.669Z,99936.36
2018-03-03T07:55:03.027Z,99938.77
2018-03-03T07:57:31.381Z,99944.25
2018-03-03T08:00:00.499Z,99943.61
2018-03-03T08:02:30.187Z,99941.25
2018-03-03T08:04:59.300Z,99930.23
2018-03-03T08:07:27.646Z,99934.07
2018-03-03T08:09:56.124Z,99928.35
2018-03-03T08:12:24.593Z,99893.49
2018-03-03T08:14:52.953Z,99933.32
2018-03-03T08:17:21.324Z,99924.58
2018-03-03T08:19:50.713Z,99924.98
2018-03-03T08:22:19.057Z,99930.05
2018-03-03T08:24:47.784Z,99925.20
2018-03-03T08:27:16.140Z,99917.52
2018-03-03T08:29:44.483Z,99915.66
2018-03-03T08:32:13.591Z,99916.78
2018-03-03T08:34:43.292Z,99922.72
2018-03-03T08:37:12.068Z,99911.97
2018-03-03T08:39:40.386Z,99910.99
2018-03-03T08:42:08.731Z,99907.99
2018-03-03T08:44:37.864Z,99910.73
2018-03-03T08:47:15.395Z,99907.86
2018-03-03T08:49:43.752Z,99907.86
2018-03-03T08:52:12.491Z,99912.02
2018-03-03T08:54:40.821Z,99905.02
2018-03-03T08:57:10.084Z,99901.37
2018-03-03T08:59:39.202Z,99904.01
2018-03-03T09:02:07.553Z,99904.09
2018-03-03T09:04:35.891Z,99900.32
2018-03-03T09:07:05.040Z,99904.23
2018-03-03T09:09:33.763Z,99906.46
2018-03-03T09:12:02.556Z,99902.13
2018-03-03T09:14:30.875Z,99900.23
2018-03-03T09:16:59.638Z,99901.44
2018-03-03T09:19:29.116Z,99903.46
2018-03-03T09:21:57.865Z,99899.95
2018-03-03T09:24:27.383Z,99906.41
2018-03-03T09:26:55.708Z,99908.41
2018-03-03T09:29:24.850Z,99909.83
2018-03-03T09:31:53.953Z,99902.94
2018-03-03T09:34:22.325Z,99906.38
2018-03-03T09:36:51.413Z,99907.06
2018-03-03T09:39:19.763Z,99899.05
2018-03-03T09:41:48.898Z,99888.95
2018-03-03T09:44:17.242Z,99885.42
2018-03-03T09:46:46.387Z,99897.67
2018-03-03T09:49:15.489Z,99889.92
2018-03-03T09:51:43.892Z,99895.72
2018-03-03T09:54:13.151Z,99891.80
2018-03-03T09:56:41.520Z,99893.50
2018-03-03T09:59:09.922Z,99880.22
2018-03-03T10:01:43.359Z,99893.13
2018-03-03T10:04:07.873Z,99888.16
2018-03-03T10:06:36.269Z,99884.52
2018-03-03T10:09:04.577Z,99888.20
2018-03-03T10:11:33.402Z,99883.57
2018-03-03T10:14:01.806Z,99885.33
2018-03-03T10:16:30.154Z,99876.02
2018-03-03T10:18:58.512Z,99873.15
2018-03-03T10:21:26.896Z,99875.05
2018-03-03T10:23:56.043Z,99879.16
2018-03-03T10:26:24.404Z,99873.13
2018-03-03T10:28:53.134Z,99885.84
2018-03-03T10:31:23.024Z,99874.41
2018-03-03T10:33:52.165Z,99877.92
2018-03-03T10:36:20.928Z,99875.19
2018-03-03T10:38:49.705Z,99875.42
2018-03-03T10:41:19.912Z,99873.34
2018-03-03T10:43:48.343Z,99874.05
2018-03-03T10:46:17.074Z,99869.59
2018-03-03T10:48:45.460Z,99872.23
2018-03-03T10:51:14.272Z,99861.91
2018-03-03T10:53:43.198Z,99861.05
2018-03-03T10:56:12.407Z,99860.23
2018-03-03T10:58:41.531Z,99853.02
2018-03-03T11:01:10.315Z,99859.02
2018-03-03T11:03:38.816Z,99854.17
2018-03-03T11:06:07.202Z,99848.84
2018-03-03T11:08:35.849Z,99850.53
2018-03-03T11:11:04.749Z,99851.02
2018-03-03T11:13:33.878Z,99850.38
2018-03-03T11:16:02.386Z,99856.23
2018-03-03T11:18:31.225Z,99853.44
2018-03-03T11:21:00.918Z,99805.67
2018-03-03T11:23:29.386Z,99849.81
2018-03-03T11:25:57.856Z,99846.36
2018-03-03T11:28:26.278Z,99858.87
2018-03-03T11:30:57.670Z,99852.05
2018-03-03T11:33:26.810Z,99853.75
2018-03-03T11:35:55.146Z,99845.00
2018-03-03T11:38:24.704Z,99853.34
2018-03-03T11:40:54.605Z,99849.25
2018-03-03T11:43:23.476Z,99841.45
2018-03-03T11:45:52.268Z,99851.42
2018-03-03T11:48:20.908Z,99853.14
2018-03-03T11:50:50.099Z,99850.41
2018-03-03T11:53:18.443Z,99852.73
2018-03-03T11:55:47.570Z,99848.77
2018-03-03T11:58:16.007Z,99857.11
2018-03-03T12:00:44.330Z,99858.01
2018-03-03T12:03:12.735Z,99861.56
2018-03-03T12:05:41.849Z,99868.88
2018-03-03T12:08:10.222Z,99877.23
2018-03-03T12:10:38.578Z,99870.00
2018-03-03T12:13:07.719Z,99874.77
2018-03-03T12:15:36.032Z,99868.52
2018-03-03T12:18:04.460Z,99865.91
2018-03-03T12:20:32.830Z,99868.62
2018-03-03T12:23:01.963Z,99860.39
2018-03-03T12:25:31.335Z,99860.90
2018-03-03T12:27:59.854Z,99857.21
2018-03-03T12:30:28.211Z,99852.12
2018-03-03T12:32:56.603Z,99849.56
2018-03-03T12:35:25.004Z,99842.61
2018-03-03T12:37:53.347Z,99844.12
2018-03-03T12:40:21.718Z,99833.80
2018-03-03T12:42:51.226Z,99835.73
2018-03-03T12:45:19.560Z,99832.84
2018-03-03T12:47:47.907Z,99828.91
2018-03-03T12:50:16.315Z,99827.67
2018-03-03T12:52:45.018Z,99833.61
2018-03-03T12:55:13.629Z,99822.20
2018-03-03T12:57:41.952Z,99815.44
2018-03-03T13:00:10.306Z,99816.36
2018-03-03T13:02:38.628Z,99832.69
2018-03-03T13:05:08.346Z,99823.59
2018-03-03T13:07:36.667Z,99824.25
2018-03-03T13:10:05.025Z,99824.44
2018-03-03T13:12:33.390Z,99831.05
2018-03-03T13:15:01.726Z,99830.38
2018-03-03T13:17:30.091Z,99820.66
2018-03-03T13:19:58.416Z,99824.20
2018-03-03T13:22:26.772Z,99826.17
2018-03-03T13:24:56.233Z,99831.66
2018-03-03T13:27:24.582Z,99821.16
2018-03-03T13:29:53.721Z,99821.02
2018-03-03T13:32:22.092Z,99828.50
2018-03-03T13:34:51.195Z,99812.92
2018-03-03T13:37:20.385Z,99812.41
2018-03-03T13:39:48.761Z,99813.34
2018-03-03T13:42:17.101Z,99817.21
2018-03-03T13:44:45.477Z,99819.09
2018-03-03T13:47:13.826Z,99818.06
2018-03-03T13:49:42.153Z,99815.23
2018-03-03T13:52:10.504Z,99812.82
2018-03-03T13:54:38.813Z,99808.11
2018-03-03T13:57:07.159Z,99796.91
2018-03-03T13:59:35.467Z,99802.69
2018-03-03T14:02:04.212Z,99808.17
2018-03-03T14:04:33.289Z,99806.12
2018-03-03T14:07:02.441Z,99804.27
2018-03-03T14:09:30.776Z,99809.77
2018-03-03T14:11:59.104Z,99814.33
2018-03-03T14:14:27.461Z,99803.90
2018-03-03T14:16:55.825Z,99805.75
2018-03-03T14:19:24.185Z,99803.69
2018-03-03T14:21:53.286Z,99806.36
2018-03-03T14:24:21.649Z,99805.34
2018-03-03T14:26:50.355Z,99806.24
2018-03-03T14:29:18.741Z,99796.56
2018-03-03T14:31:47.161Z,99806.41
2018-03-03T14:34:15.562Z,99794.72
2018-03-03T14:36:44.730Z,99796.09
2018-03-03T14:39:13.057Z,99793.48
2018-03-03T14:41:41.440Z,99794.03
2018-03-03T14:44:09.756Z,99784.58
2018-03-03T14:46:38.093Z,99797.02
2018-03-03T14:49:07.215Z,99795.12
2018-03-03T14:51:35.572Z,99798.91
2018-03-03T14:54:04.332Z,99792.48
2018-03-03T14:56:32.699Z,99786.53
2018-03-03T14:59:01.010Z,99791.77
2018-03-03T15:01:30.147Z,99791.20
2018-03-03T15:03:58.511Z,99789.86
2018-03-03T15:06:26.826Z,99798.13
2018-03-03T15:08:55.182Z,99795.84
2018-03-03T15:11:23.559Z,99728.19
2018-03-03T15:13:52.311Z,99797.64
2018-03-03T15:16:20.637Z,99798.48
2018-03-03T15:18:49.008Z,99799.61
2018-03-03T15:21:17.338Z,99808.16
2018-03-03T15:23:45.718Z,99799.97
2018-03-03T15:26:14.048Z,99805.16
2018-03-03T15:28:42.384Z,99806.11
2018-03-03T15:31:10.740Z,99808.27
2018-03-03T15:33:39.472Z,99806.44
2018-03-03T15:36:07.828Z,99806.84
2018-03-03T15:38:36.142Z,99808.53
2018-03-03T15:41:04.520Z,99811.39
2018-03-03T15:43:32.855Z,99813.53
2018-03-03T15:46:01.203Z,99817.05
2018-03-03T15:48:29.601Z,99820.02
2018-03-03T15:50:57.914Z,99818.66
2018-03-03T15:53:26.229Z,99819.82
2018-03-03T15:55:54.617Z,99829.28
2018-03-03T15:58:23.755Z,99827.95
2018-03-03T16:00:52.088Z,99834.81
2018-03-03T16:03:21.172Z,99825.27
2018-03-03T16:05:49.932Z,99831.25
2018-03-03T16:08:18.271Z,99826.02
2018-03-03T16:10:47.090Z,99827.22
2018-03-03T16:13:16.266Z,99832.41
2018-03-03T16:15:44.581Z,99831.16
2018-03-03T16:18:12.953Z,99839.16
2018-03-03T16:20:41.318Z,99837.14
2018-03-03T16:23:10.033Z,99842.55
2018-03-03T16:25:38.448Z,99850.38
2018-03-03T16:28:06.767Z,99846.70
2018-03-03T16:30:35.550Z,99852.15
2018-03-03T16:33:03.907Z,99851.52
2018-03-03T16:35:32.231Z,99855.67
2018-03-03T16:38:00.563Z,99865.16
2018-03-03T16:40:28.937Z,99859.37
2018-03-03T16:42:57.267Z,99860.09
2018-03-03T16:45:26.385Z,99864.63
2018-03-03T16:47:55.475Z,99869.06
2018-03-03T16:50:24.206Z,99866.61
2018-03-03T16:52:52.583Z,99869.86
2018-03-03T16:55:20.903Z,99878.02
2018-03-03T16:57:49.269Z,99878.97
2018-03-03T17:00:17.599Z,99890.55
2018-03-03T17:02:47.126Z,99891.12
2018-03-03T17:05:15.841Z,99893.50
2018-03-03T17:07:44.243Z,99895.28
2018-03-03T17:10:13.394Z,99899.38
2018-03-03T17:12:41.774Z,99891.62
2018-03-03T17:15:10.537Z,99893.58
2018-03-03T17:17:38.902Z,99899.96
2018-03-03T17:20:08.006Z,99905.96
2018-03-03T17:22:36.355Z,99910.52
2018-03-03T17:25:06.330Z,99910.64
2018-03-03T17:27:34.688Z,99913.98
2018-03-03T17:30:03.472Z,99917.94
2018-03-03T17:32:31.817Z,99923.98
2018-03-03T17:35:00.946Z,99932.32
2018-03-03T17:37:29.333Z,99936.64
2018-03-03T17:39:58.090Z,99939.39
2018-03-03T17:42:26.454Z,99941.13
2018-03-03T17:44:55.201Z,99944.01
2018-03-03T17:47:23.556Z,99950.27
2018-03-03T17:49:52.370Z,99945.63
2018-03-03T17:52:20.751Z,99949.88
2018-03-03T17:54:49.846Z,99948.50
2018-03-03T17:57:18.804Z,99953.83
2018-03-03T17:59:48.852Z,99953.61
2018-03-03T18:02:17.637Z,99958.09
2018-03-03T18:04:46.351Z,99957.78
2018-03-03T18:07:15.619Z,99958.66
2018-03-03T18:09:44.056Z,99957.70
2018-03-03T18:12:12.482Z,99959.38
2018-03-03T18:14:40.962Z,99962.27
2018-03-03T18:17:10.198Z,99965.80
2018-03-03T18:19:39.878Z,99965.64
2018-03-03T18:22:08.245Z,99962.58
2018-03-03T18:24:37.666Z,99968.11
2018-03-03T18:27:07.024Z,99972.28
2018-03-03T18:29:36.265Z,99977.70
2018-03-03T18:32:04.681Z,99978.31
2018-03-03T18:34:33.070Z,99980.13
2018-03-03T18:37:01.478Z,99977.56
2018-03-03T18:39:29.795Z,99978.09
2018-03-03T18:41:58.954Z,99981.48
2018-03-03T18:44:28.127Z,99974.44
2018-03-03T18:46:56.858Z,99978.82
2018-03-03T18:49:25.194Z,99981.62
2018-03-03T18:51:53.583Z,99984.70
2018-03-03T18:54:22.342Z,99986.29
2018-03-03T18:56:50.684Z,99980.90
2018-03-03T18:59:20.192Z,99984.77
2018-03-03T19:01:48.532Z,99981.84
2018-03-03T19:04:19.264Z,99981.16
2018-03-03T19:06:48.410Z,99980.16
2018-03-03T19:09:18.061Z,99983.86
2018-03-03T19:11:47.207Z,99979.06
2018-03-03T19:14:16.295Z,99984.35
2018-03-03T19:16:44.685Z,99983.31
2018-03-03T19:19:13.778Z,99984.77
2018-03-03T19:21:42.924Z,99919.00
2018-03-03T19:24:11.645Z,99988.02
2018-03-03T19:26:39.988Z,99984.45
2018-03-03T19:29:08.358Z,99990.92
2018-03-03T19:31:37.651Z,99990.59
2018-03-03T19:34:06.771Z,99995.34
2018-03-03T19:36:35.879Z,99997.59
2018-03-03T19:39:04.291Z,99995.66
2018-03-03T19:41:33.429Z,99990.75
2018-03-03T19:44:01.856Z,99990.69
2018-03-03T19:46:30.222Z,99992.67
2018-03-03T19:49:00.510Z,99993.91
2018-03-03T19:51:30.394Z,99942.78
2018-03-03T19:53:58.737Z,99998.53
2018-03-03T19:56:27.511Z,99994.52
2018-03-03T19:58:57.007Z,99991.36
2018-03-03T20:01:26.531Z,99995.42
2018-03-03T20:03:56.367Z,99993.17
2018-03-03T20:06:25.508Z,99992.30
2018-03-03T20:08:55.134Z,99996.72
2018-03-03T20:11:24.856Z,99997.09
2018-03-03T20:13:54.736Z,99993.43
2018-03-03T20:16:24.468Z,100000.69
2018-03-03T20:18:52.841Z,99998.45
2018-03-03T20:21:21.178Z,99999.70
2018-03-03T20:23:49.541Z,100002.03
2018-03-03T20:26:18.645Z,100002.24
2018-03-03T20:28:47.668Z,99999.90
2018-03-03T20:31:16.014Z,100001.58
2018-03-03T20:33:45.735Z,100003.52
2018-03-03T20:36:14.848Z,99998.50
2018-03-03T20:38:43.179Z,100000.19
2018-03-03T20:41:11.936Z,99997.45
2018-03-03T20:43:41.046Z,100001.29
2018-03-03T20:46:09.685Z,99994.97
2018-03-03T20:48:39.240Z,99987.83
2018-03-03T20:51:09.016Z,99987.52
2018-03-03T20:53:37.382Z,99983.13
2018-03-03T20:56:06.144Z,99978.30
2018-03-03T20:58:34.481Z,99976.20
2018-03-03T21:01:02.879Z,99966.77
2018-03-03T21:03:32.056Z,99977.74
2018-03-03T21:06:01.985Z,99974.77
2018-03-03T21:08:30.765Z,99968.21
2018-03-03T21:10:59.107Z,99974.97
2018-03-03T21:13:27.568Z,99979.73
2018-03-03T21:15:55.908Z,99982.34
2018-03-03T21:18:25.472Z,99985.09
2018-03-03T21:20:54.883Z,99988.07
2018-03-03T21:23:24.018Z,99983.47
2018-03-03T21:25:52.792Z,99993.95
2018-03-03T21:28:21.193Z,99996.88
2018-03-03T21:30:49.953Z,99998.79
2018-03-03T21:33:18.275Z,100000.45
2018-03-03T21:35:46.631Z,100013.01
2018-03-03T21:38:15.737Z,100013.60
2018-03-03T21:40:44.526Z,100019.53
2018-03-03T21:43:12.875Z,100017.99
2018-03-03T21:45:41.257Z,100020.69
2018-03-03T21:48:09.628Z,100023.96
2018-03-03T21:50:38.473Z,100035.53
2018-03-03T21:53:06.806Z,100025.84
2018-03-03T21:55:35.593Z,100030.48
2018-03-03T21:58:04.689Z,100026.42
2018-03-03T22:00:33.817Z,100029.30
2018-03-03T22:03:02.151Z,100024.06
2018-03-03T22:05:30.536Z,100033.52
2018-03-03T22:07:59.701Z,100034.42
2018-03-03T22:10:28.044Z,100030.84
2018-03-03T22:12:56.395Z,100033.84
2018-03-03T22:15:25.547Z,100042.84
2018-03-03T22:17:53.917Z,100041.96
2018-03-03T22:20:22.300Z,100038.00
2018-03-03T22:22:50.663Z,100040.62
2018-03-03T22:25:19.003Z,100038.96
2018-03-03T22:27:47.359Z,100042.85
2018-03-03T22:30:15.739Z,100053.44
2018-03-03T22:32:44.321Z,100047.02
2018-03-03T22:35:12.811Z,100045.77
2018-03-03T22:37:41.204Z,100040.72
2018-03-03T22:40:10.341Z,100048.16
2018-03-03T22:42:38.706Z,100053.38
2018-03-03T22:45:07.811Z,100046.30
2018-03-03T22:47:36.964Z,100053.44
2018-03-03T22:50:05.353Z,100043.97
2018-03-03T22:52:34.495Z,100051.95
2018-03-03T22:55:02.878Z,100054.83
2018-03-03T22:57:31.613Z,100044.98
2018-03-03T22:59:59.994Z,100048.59
2018-03-03T23:02:29.891Z,100048.80
2018-03-03T23:04:59.075Z,100048.02
2018-03-03T23:07:27.897Z,100047.98
2018-03-03T23:09:57.033Z,100047.34
2018-03-03T23:12:25.789Z,100043.99
2018-03-03T23:14:54.203Z,100052.55
2018-03-03T23:17:22.939Z,100049.95
2018-03-03T23:19:52.435Z,100054.56
2018-03-03T23:22:20.861Z,100059.95
2018-03-03T23:24:49.279Z,100069.56
2018-03-03T23:27:17.648Z,100066.42
2018-03-03T23:29:45.970Z,100063.17
2018-03-03T23:32:14.380Z,100062.92
2018-03-03T23:34:43.900Z,100068.77
2018-03-03T23:37:12.282Z,100054.20
2018-03-03T23:39:40.632Z,100052.16
2018-03-03T23:42:09.000Z,100049.61
2018-03-03T23:44:37.344Z,100048.31
2018-03-03T23:47:05.778Z,100050.13
2018-03-03T23:49:34.474Z,100043.92
2018-03-03T23:52:02.834Z,100046.83
2018-03-03T23:54:31.160Z,100055.56
2018-03-03T23:56:59.990Z,100054.09
2018-03-03T23:59:29.136Z,100053.69
